Time;durP1;ratioP1;P1;durP2;ratioP2;P2;SDS_P1;SDS_P2;PMS_P1;PMS_P2;Temp;Humidity;BMP_temperature;BMP_pressure;BME280_temperature;BME280_humidity;BME280_pressure;Samples;Min_cycle;Max_cycle;Signal;HPM_P1;HPM_P2
2022/11/23 00:00:36;;;;;;;0.32;0.32;;;;;;;5.89;100.00;97380.75;5028119;28;20079;-82
2022/11/23 00:03:02;;;;;;;0.40;0.40;;;;;;;5.91;100.00;97377.88;5018637;28;20034;-81
2022/11/23 00:05:28;;;;;;;0.40;0.40;;;;;;;5.87;100.00;97355.38;5022329;28;20464;-82
2022/11/23 00:07:54;;;;;;;0.50;0.50;;;;;;;5.95;100.00;97357.72;5013010;28;20033;-81
2022/11/23 00:10:20;;;;;;;0.40;0.40;;;;;;;5.97;100.00;97350.31;5013542;28;20372;-81
2022/11/23 00:12:46;;;;;;;0.40;0.40;;;;;;;5.98;100.00;97356.47;4993455;28;20494;-82
2022/11/23 00:15:13;;;;;;;0.40;0.40;;;;;;;5.97;100.00;97354.84;5013364;28;20095;-81
2022/11/23 00:17:39;;;;;;;0.40;0.40;;;;;;;5.98;100.00;97353.78;5029073;28;20413;-82
2022/11/23 00:20:05;;;;;;;0.70;0.70;;;;;;;5.92;100.00;97334.97;5023059;28;20026;-81
2022/11/23 00:22:31;;;;;;;0.50;0.50;;;;;;;5.99;100.00;97337.56;5023986;28;20038;-81
2022/11/23 00:24:57;;;;;;;0.30;0.30;;;;;;;5.81;100.00;97298.44;4996093;28;20033;-80
2022/11/23 00:27:22;;;;;;;0.40;0.40;;;;;;;6.05;100.00;97309.97;4995453;28;20112;-82
2022/11/23 00:29:48;;;;;;;0.40;0.40;;;;;;;6.03;100.00;97306.72;4996639;28;20061;-83
2022/11/23 00:32:14;;;;;;;0.47;0.47;;;;;;;6.11;100.00;97297.56;5046821;28;20037;-83
2022/11/23 00:34:39;;;;;;;0.50;0.50;;;;;;;6.15;100.00;97288.06;5016463;28;20025;-83
2022/11/23 00:37:05;;;;;;;0.40;0.40;;;;;;;6.08;100.00;97266.84;5033158;28;20029;-83
2022/11/23 00:39:31;;;;;;;0.40;0.40;;;;;;;6.21;100.00;97262.31;5030179;28;20464;-83
2022/11/23 00:41:56;;;;;;;0.40;0.40;;;;;;;6.24;100.00;97245.84;5036768;28;20043;-83
2022/11/23 00:44:22;;;;;;;0.40;0.40;;;;;;;6.27;100.00;97237.38;5033026;28;20022;-82
2022/11/23 00:46:47;;;;;;;0.30;0.30;;;;;;;6.30;100.00;97244.91;5008676;28;20052;-82
2022/11/23 00:49:13;;;;;;;0.45;0.45;;;;;;;6.31;100.00;97249.19;5023732;28;20132;-82
2022/11/23 00:51:39;;;;;;;0.40;0.40;;;;;;;6.28;100.00;97245.16;5033768;28;20402;-82
2022/11/23 00:54:05;;;;;;;0.40;0.40;;;;;;;6.29;100.00;97230.75;4993702;28;20033;-83
2022/11/23 00:56:32;;;;;;;0.40;0.40;;;;;;;6.33;100.00;97239.13;5028170;28;20033;-81
2022/11/23 00:58:59;;;;;;;0.40;0.40;;;;;;;6.32;100.00;97227.59;5027113;28;20056;-81
2022/11/23 01:01:28;;;;;;;0.40;0.40;;;;;;;6.39;100.00;97227.50;5027367;28;20025;-83
2022/11/23 01:03:56;;;;;;;0.40;0.40;;;;;;;6.32;100.00;97186.78;5031641;28;20071;-83
2022/11/23 01:06:29;;;;;;;0.40;0.40;;;;;;;6.39;100.00;97212.28;5031673;28;20033;-82
2022/11/23 01:09:02;;;;;;;0.40;0.40;;;;;;;6.57;100.00;97304.75;4994333;28;20041;-85
2022/11/23 01:11:30;;;;;;;1.17;0.40;;;;;;;6.61;100.00;97267.69;5004838;28;20048;-82
2022/11/23 01:13:55;;;;;;;0.40;0.40;;;;;;;6.73;100.00;97251.66;5013461;28;20132;-82
2022/11/23 01:16:25;;;;;;;0.50;0.50;;;;;;;6.75;100.00;97233.56;5029256;28;20528;-83
2022/11/23 01:18:52;;;;;;;0.40;0.40;;;;;;;6.86;100.00;97234.56;5034978;28;20041;-83
2022/11/23 01:21:18;;;;;;;0.40;0.40;;;;;;;6.85;100.00;97225.72;5049410;28;20095;-84
2022/11/23 01:23:43;;;;;;;0.40;0.40;;;;;;;6.94;100.00;97245.66;5016568;28;20029;-84
2022/11/23 01:26:09;;;;;;;0.40;0.40;;;;;;;6.91;100.00;97248.00;5024361;28;20296;-85
2022/11/23 01:28:37;;;;;;;0.43;0.43;;;;;;;6.80;100.00;97220.28;5007982;28;20084;-85
2022/11/23 01:31:04;;;;;;;0.40;0.40;;;;;;;6.87;100.00;97223.63;5024614;28;20052;-86
2022/11/23 01:33:30;;;;;;;0.40;0.40;;;;;;;6.89;100.00;97232.22;5047370;28;20079;-86
2022/11/23 01:35:55;;;;;;;0.40;0.40;;;;;;;6.93;100.00;97229.88;5010406;28;20022;-85
2022/11/23 01:38:23;;;;;;;0.40;0.40;;;;;;;6.88;100.00;97216.41;4991738;28;20627;-85
2022/11/23 01:40:49;;;;;;;0.40;0.40;;;;;;;6.92;100.00;97207.69;5035719;28;20043;-86
2022/11/23 01:43:17;;;;;;;0.50;0.50;;;;;;;6.99;100.00;97218.25;5008896;28;20034;-84
2022/11/23 01:45:54;;;;;;;0.40;0.40;;;;;;;6.93;100.00;97208.50;5040697;28;20091;-86
2022/11/23 01:48:26;;;;;;;0.40;0.40;;;;;;;6.80;100.00;97183.72;5030982;28;20048;-85
2022/11/23 01:50:53;;;;;;;0.40;0.40;;;;;;;6.75;100.00;97156.13;5011275;28;20030;-86
2022/11/23 01:53:19;;;;;;;0.40;0.40;;;;;;;6.93;100.00;97187.13;5012688;28;20038;-86
2022/11/23 01:55:45;;;;;;;0.35;0.35;;;;;;;6.90;100.00;97174.25;5011927;28;20357;-85
2022/11/23 01:58:12;;;;;;;0.38;0.38;;;;;;;6.94;100.00;97180.75;5029199;28;20061;-85
2022/11/23 02:00:37;;;;;;;0.40;0.40;;;;;;;6.95;100.00;97187.72;5024124;28;20029;-84
2022/11/23 02:03:04;;;;;;;0.30;0.30;;;;;;;6.81;100.00;97166.66;4999422;28;20025;-86
2022/11/23 02:05:34;;;;;;;0.40;0.40;;;;;;;6.91;100.00;97186.59;5010878;28;20471;-85
2022/11/23 02:08:00;;;;;;;0.30;0.30;;;;;;;6.87;100.00;97185.44;5007268;28;20030;-85
2022/11/23 02:10:28;;;;;;;0.30;0.30;;;;;;;6.89;100.00;97192.16;5025497;28;20037;-85
2022/11/23 02:12:54;;;;;;;0.40;0.40;;;;;;;6.84;100.00;97202.75;4998883;28;20029;-86
2022/11/23 02:15:19;;;;;;;0.32;0.32;;;;;;;6.86;100.00;97197.97;5031755;28;20121;-86
2022/11/23 02:17:45;;;;;;;0.40;0.40;;;;;;;6.93;100.00;97200.47;4999217;28;20423;-86
2022/11/23 02:20:13;;;;;;;0.40;0.40;;;;;;;6.86;100.00;97187.28;5020943;28;20542;-85
2022/11/23 02:22:51;;;;;;;0.40;0.40;;;;;;;6.94;100.00;97194.91;4998320;28;20029;-84
2022/11/23 02:25:35;;;;;;;0.30;0.30;;;;;;;6.96;100.00;97213.34;5006889;28;20116;-85
2022/11/23 02:28:01;;;;;;;0.30;0.30;;;;;;;6.96;100.00;97214.19;5015549;28;20029;-84
2022/11/23 02:30:28;;;;;;;0.40;0.40;;;;;;;6.98;100.00;97204.06;5023808;28;20405;-84
2022/11/23 02:32:55;;;;;;;0.40;0.40;;;;;;;7.00;100.00;97220.66;4993618;28;20033;-85
2022/11/23 02:35:20;;;;;;;0.40;0.40;;;;;;;7.09;100.00;97230.94;5012023;28;20017;-84
2022/11/23 02:37:46;;;;;;;0.40;0.40;;;;;;;7.02;100.00;97204.41;4994373;28;20030;-84
2022/11/23 02:40:22;;;;;;;0.40;0.40;;;;;;;7.08;100.00;97207.97;5022207;28;20025;-84
2022/11/23 02:42:49;;;;;;;0.30;0.30;;;;;;;7.02;100.00;97209.75;5015277;28;20041;-83
2022/11/23 02:45:35;;;;;;;0.30;0.30;;;;;;;6.97;100.00;97218.47;5030866;28;20040;-85
2022/11/23 02:48:01;;;;;;;0.40;0.40;;;;;;;6.94;100.00;97221.63;5019060;28;20447;-84
2022/11/23 02:50:26;;;;;;;0.40;0.40;;;;;;;6.87;100.00;97220.16;5012903;28;20033;-85
2022/11/23 02:52:52;;;;;;;0.32;0.32;;;;;;;6.68;100.00;97203.50;5024447;28;20033;-84
2022/11/23 02:55:19;;;;;;;0.40;0.40;;;;;;;6.79;100.00;97227.47;5019716;28;20048;-84
2022/11/23 02:57:44;;;;;;;0.40;0.40;;;;;;;6.56;100.00;97193.69;4998287;28;20034;-84
2022/11/23 03:00:11;;;;;;;0.40;0.40;;;;;;;6.72;100.00;97209.97;5027401;28;20451;-84
2022/11/23 03:02:37;;;;;;;0.40;0.40;;;;;;;6.78;100.00;97220.53;5013558;28;20045;-86
2022/11/23 03:05:03;;;;;;;0.40;0.40;;;;;;;6.88;100.00;97232.44;5018789;28;20034;-83
2022/11/23 03:07:29;;;;;;;0.38;0.38;;;;;;;6.91;100.00;97248.00;5012296;28;20037;-83
2022/11/23 03:09:54;;;;;;;0.30;0.30;;;;;;;6.91;100.00;97254.16;5014755;28;20361;-82
2022/11/23 03:12:20;;;;;;;0.40;0.40;;;;;;;6.88;100.00;97251.13;5022691;28;20044;-85
2022/11/23 03:14:46;;;;;;;0.40;0.40;;;;;;;6.79;100.00;97245.38;5047146;28;20537;-83
2022/11/23 03:17:11;;;;;;;0.40;0.40;;;;;;;6.62;100.00;97234.63;5006669;28;20097;-84
2022/11/23 03:19:37;;;;;;;0.40;0.40;;;;;;;6.58;100.00;97231.59;5005662;28;20022;-85
2022/11/23 03:22:03;;;;;;;0.40;0.40;;;;;;;6.52;100.00;97237.91;5008082;28;20040;-84
2022/11/23 03:24:28;;;;;;;0.40;0.40;;;;;;;6.47;100.00;97239.66;5012086;28;20432;-84
2022/11/23 03:26:54;;;;;;;0.40;0.40;;;;;;;6.41;100.00;97233.41;5023911;28;20499;-85
2022/11/23 03:29:21;;;;;;;0.40;0.40;;;;;;;6.44;100.00;97251.63;5013274;28;20037;-83
2022/11/23 03:31:46;;;;;;;0.40;0.40;;;;;;;6.63;100.00;97251.47;5014106;28;20348;-84
2022/11/23 03:34:15;;;;;;;2.28;0.70;;;;;;;6.54;100.00;97265.19;5009310;28;20068;-86
2022/11/23 03:36:41;;;;;;;0.50;0.50;;;;;;;6.48;100.00;97255.41;5014434;28;20037;-84
2022/11/23 03:39:06;;;;;;;0.40;0.40;;;;;;;6.47;100.00;97272.50;5038800;28;20533;-84
2022/11/23 03:41:32;;;;;;;0.40;0.40;;;;;;;6.52;100.00;97283.28;5016785;28;20037;-85
2022/11/23 03:43:58;;;;;;;0.40;0.40;;;;;;;6.42;100.00;97269.72;5046500;28;20040;-84
2022/11/23 03:46:23;;;;;;;0.30;0.30;;;;;;;6.40;100.00;97279.81;4994161;28;20048;-86
2022/11/23 03:48:49;;;;;;;0.40;0.40;;;;;;;6.29;100.00;97275.28;4991203;28;20064;-84
2022/11/23 03:51:15;;;;;;;0.40;0.40;;;;;;;6.22;100.00;97280.78;5005891;28;20498;-84
2022/11/23 03:53:40;;;;;;;0.40;0.40;;;;;;;6.22;100.00;97288.78;5021356;28;20029;-84
2022/11/23 03:56:06;;;;;;;0.47;0.47;;;;;;;6.29;100.00;97291.31;5022846;28;20033;-84
2022/11/23 03:58:32;;;;;;;0.40;0.40;;;;;;;6.35;100.00;97296.53;5026861;28;20037;-83
2022/11/23 04:00:58;;;;;;;0.40;0.40;;;;;;;6.34;100.00;97292.22;5006846;28;20036;-84
2022/11/23 04:03:23;;;;;;;0.40;0.40;;;;;;;6.27;100.00;97296.91;5017896;28;20050;-86
2022/11/23 04:05:49;;;;;;;0.40;0.40;;;;;;;6.10;100.00;97295.97;5010192;28;20108;-85
2022/11/23 04:08:14;;;;;;;0.40;0.40;;;;;;;5.93;100.00;97298.47;5020511;28;20029;-85
2022/11/23 04:10:40;;;;;;;0.40;0.40;;;;;;;5.78;100.00;97284.78;5006064;28;20456;-85
2022/11/23 04:13:06;;;;;;;0.40;0.40;;;;;;;5.80;100.00;97291.50;5002152;28;20140;-85
2022/11/23 04:15:31;;;;;;;0.40;0.40;;;;;;;5.89;100.00;97315.97;5011955;28;20030;-85
2022/11/23 04:17:57;;;;;;;0.40;0.40;;;;;;;5.85;100.00;97320.16;5004928;28;20029;-87
2022/11/23 04:20:23;;;;;;;0.40;0.40;;;;;;;5.58;100.00;97317.06;5037418;28;20034;-85
2022/11/23 04:22:48;;;;;;;0.50;0.50;;;;;;;5.48;100.00;97315.78;5013351;28;20037;-86
2022/11/23 04:25:14;;;;;;;0.40;0.40;;;;;;;5.27;100.00;97303.78;4997564;28;20056;-85
2022/11/23 04:27:42;;;;;;;0.40;0.40;;;;;;;5.18;100.00;97305.13;5023023;28;20056;-86
2022/11/23 04:30:08;;;;;;;0.50;0.50;;;;;;;5.16;100.00;97327.69;4990517;28;20038;-85
2022/11/23 04:32:34;;;;;;;0.40;0.40;;;;;;;4.95;100.00;97313.84;5012282;28;20049;-84
2022/11/23 04:35:00;;;;;;;0.40;0.40;;;;;;;4.98;100.00;97325.91;5007640;28;20030;-85
2022/11/23 04:37:25;;;;;;;0.40;0.40;;;;;;;4.92;100.00;97326.75;5009390;28;20064;-85
2022/11/23 04:39:51;;;;;;;0.40;0.40;;;;;;;4.89;100.00;97325.38;5008979;28;20534;-86
2022/11/23 04:42:16;;;;;;;0.40;0.40;;;;;;;4.82;100.00;97325.47;5016325;28;20037;-85
2022/11/23 04:44:42;;;;;;;0.40;0.40;;;;;;;4.65;100.00;97312.97;4990511;28;20091;-86
2022/11/23 04:47:09;;;;;;;0.40;0.40;;;;;;;4.57;100.00;97319.41;5004617;28;20463;-85
2022/11/23 04:49:35;;;;;;;0.43;0.43;;;;;;;4.39;100.00;97309.56;5046465;28;20029;-86
2022/11/23 04:52:00;;;;;;;0.40;0.40;;;;;;;4.37;100.00;97315.09;5013186;28;20087;-86
2022/11/23 04:54:26;;;;;;;0.40;0.40;;;;;;;4.34;100.00;97315.56;5008177;28;20033;-85
2022/11/23 04:56:53;;;;;;;0.40;0.40;;;;;;;4.22;100.00;97319.97;4997046;28;20030;-85
2022/11/23 04:59:18;;;;;;;0.40;0.40;;;;;;;4.06;100.00;97313.34;5004724;28;20089;-86
2022/11/23 05:01:44;;;;;;;0.40;0.40;;;;;;;4.04;100.00;97330.56;5028812;28;20116;-86
2022/11/23 05:04:10;;;;;;;0.40;0.40;;;;;;;3.96;100.00;97339.63;5028957;28;20083;-85
2022/11/23 05:06:36;;;;;;;0.40;0.40;;;;;;;3.93;100.00;97340.88;5009669;28;20041;-85
2022/11/23 05:09:01;;;;;;;0.40;0.40;;;;;;;3.92;100.00;97341.09;5007272;28;20029;-85
2022/11/23 05:11:27;;;;;;;0.40;0.40;;;;;;;3.84;100.00;97336.06;4996468;28;20479;-85
2022/11/23 05:13:52;;;;;;;0.40;0.40;;;;;;;3.90;100.00;97341.31;4995113;28;20407;-85
2022/11/23 05:16:18;;;;;;;0.40;0.40;;;;;;;3.89;100.00;97322.91;5031279;28;20030;-86
2022/11/23 05:18:44;;;;;;;0.40;0.40;;;;;;;4.16;100.00;97340.28;5005785;28;20068;-87
2022/11/23 05:21:09;;;;;;;0.40;0.40;;;;;;;4.07;100.00;97322.16;5016003;28;20395;-85
2022/11/23 05:23:35;;;;;;;0.45;0.45;;;;;;;4.16;100.00;97336.81;5032627;28;20025;-85
2022/11/23 05:26:01;;;;;;;0.40;0.40;;;;;;;4.06;100.00;97329.31;5016266;28;20033;-86
2022/11/23 05:28:26;;;;;;;0.50;0.50;;;;;;;4.05;100.00;97335.66;4997909;28;20392;-85
2022/11/23 05:30:53;;;;;;;0.40;0.40;;;;;;;3.98;100.00;97332.25;5032201;28;20072;-85
2022/11/23 05:33:18;;;;;;;0.40;0.40;;;;;;;4.00;100.00;97335.50;5016470;28;20060;-86
2022/11/23 05:35:44;;;;;;;0.40;0.40;;;;;;;3.89;100.00;97321.09;4993070;28;20464;-85
2022/11/23 05:38:09;;;;;;;0.40;0.40;;;;;;;3.89;100.00;97317.59;5025190;28;20025;-85
2022/11/23 05:40:38;;;;;;;0.40;0.40;;;;;;;4.01;100.00;97337.13;5052734;28;20028;-88
2022/11/23 05:43:04;;;;;;;0.40;0.40;;;;;;;3.87;100.00;97319.66;5049968;28;20026;-88
2022/11/23 05:45:29;;;;;;;0.40;0.40;;;;;;;3.89;100.00;97323.75;5031602;28;20056;-86
2022/11/23 05:47:57;;;;;;;0.40;0.40;;;;;;;3.96;100.00;97336.97;5034908;28;20440;-87
2022/11/23 05:50:24;;;;;;;0.40;0.40;;;;;;;3.90;100.00;97330.69;5031968;28;20036;-84
2022/11/23 05:52:50;;;;;;;0.40;0.40;;;;;;;3.94;100.00;97334.53;5009870;28;20168;-84
2022/11/23 05:55:16;;;;;;;0.50;0.50;;;;;;;3.88;100.00;97308.81;5024679;28;20501;-86
2022/11/23 05:57:42;;;;;;;0.40;0.40;;;;;;;4.00;100.00;97326.72;5049451;28;20033;-84
2022/11/23 06:00:11;;;;;;;0.43;0.43;;;;;;;4.14;100.00;97346.84;5008273;28;20029;-87
2022/11/23 06:02:37;;;;;;;0.40;0.40;;;;;;;4.13;100.00;97329.28;5009807;28;20081;-84
2022/11/23 06:05:04;;;;;;;0.40;0.40;;;;;;;4.22;100.00;97337.78;5030515;28;20464;-85
2022/11/23 06:07:33;;;;;;;0.40;0.40;;;;;;;4.31;100.00;97339.94;5023616;28;20081;-86
2022/11/23 06:09:59;;;;;;;0.40;0.40;;;;;;;4.42;100.00;97351.69;5032403;28;20041;-84
2022/11/23 06:12:26;;;;;;;0.50;0.50;;;;;;;4.63;100.00;97359.25;5022948;28;20046;-85
2022/11/23 06:14:52;;;;;;;0.75;0.52;;;;;;;4.92;100.00;97351.56;4999030;28;20135;-85
2022/11/23 06:17:18;;;;;;;0.50;0.50;;;;;;;5.17;100.00;97355.97;4991157;28;20132;-86
2022/11/23 06:19:43;;;;;;;0.40;0.40;;;;;;;5.31;100.00;97353.94;4998757;28;20187;-84
2022/11/23 06:22:09;;;;;;;0.40;0.40;;;;;;;5.39;100.00;97362.41;5007870;28;20026;-84
2022/11/23 06:24:34;;;;;;;0.40;0.40;;;;;;;5.34;100.00;97364.13;5012309;28;20033;-85
2022/11/23 06:27:00;;;;;;;0.50;0.50;;;;;;;5.26;100.00;97360.72;5026557;28;20021;-86
2022/11/23 06:29:26;;;;;;;0.50;0.50;;;;;;;5.19;100.00;97376.00;5023052;28;20041;-82
2022/11/23 06:31:51;;;;;;;0.50;0.50;;;;;;;5.10;100.00;97353.38;4998533;28;20167;-83
2022/11/23 06:34:17;;;;;;;0.50;0.50;;;;;;;5.09;100.00;97373.06;5003154;28;20034;-84
2022/11/23 06:36:43;;;;;;;0.45;0.45;;;;;;;5.07;100.00;97375.13;4998016;28;20029;-84
2022/11/23 06:39:09;;;;;;;0.40;0.40;;;;;;;4.96;100.00;97360.72;5014768;28;20056;-83
2022/11/23 06:41:35;;;;;;;0.40;0.40;;;;;;;5.04;100.00;97370.25;5030068;28;20033;-84
2022/11/23 06:44:00;;;;;;;0.40;0.40;;;;;;;5.01;100.00;97373.38;5024183;28;20123;-83
2022/11/23 06:46:26;;;;;;;0.40;0.40;;;;;;;4.91;100.00;97368.56;4988655;28;20129;-84
2022/11/23 06:48:52;;;;;;;0.40;0.40;;;;;;;4.81;100.00;97379.72;5025576;28;20041;-83
2022/11/23 06:51:17;;;;;;;0.40;0.40;;;;;;;4.60;100.00;97357.03;4990209;28;20037;-84
2022/11/23 06:53:43;;;;;;;0.40;0.40;;;;;;;4.65;100.00;97384.81;4997615;28;20400;-85
2022/11/23 06:56:09;;;;;;;0.50;0.50;;;;;;;4.51;100.00;97361.00;5007303;28;20172;-84
2022/11/23 06:58:35;;;;;;;0.50;0.50;;;;;;;4.48;100.00;97363.31;5028317;28;20040;-84
2022/11/23 07:01:06;;;;;;;0.50;0.50;;;;;;;4.49;100.00;97365.72;5008667;28;20134;-85
2022/11/23 07:03:32;;;;;;;0.40;0.40;;;;;;;4.54;100.00;97370.41;4997930;28;20541;-84
2022/11/23 07:05:58;;;;;;;0.40;0.40;;;;;;;4.55;100.00;97364.03;5022183;28;20034;-84
2022/11/23 07:08:24;;;;;;;0.40;0.40;;;;;;;4.57;100.00;97357.44;5022179;28;20033;-84
2022/11/23 07:10:49;;;;;;;0.40;0.40;;;;;;;4.50;100.00;97345.25;5010670;28;20022;-84
2022/11/23 07:13:15;;;;;;;0.47;0.47;;;;;;;4.58;100.00;97353.78;5038807;28;20099;-83
2022/11/23 07:15:41;;;;;;;0.40;0.40;;;;;;;4.59;100.00;97341.28;5030002;28;20442;-85
2022/11/23 07:18:08;;;;;;;0.40;0.40;;;;;;;4.67;100.00;97343.66;5022008;28;20034;-86
2022/11/23 07:20:34;;;;;;;0.40;0.40;;;;;;;4.84;100.00;97352.69;5030332;28;20041;-86
2022/11/23 07:23:02;;;;;;;0.47;0.47;;;;;;;4.93;100.00;97365.69;5007637;28;20079;-85
2022/11/23 07:25:29;;;;;;;0.40;0.40;;;;;;;4.96;100.00;97373.22;5005319;28;20432;-84
2022/11/23 07:27:56;;;;;;;0.40;0.40;;;;;;;4.91;100.00;97363.22;5025266;28;20033;-84
2022/11/23 07:30:22;;;;;;;0.40;0.40;;;;;;;4.90;100.00;97374.13;5022698;28;20495;-84
2022/11/23 07:32:47;;;;;;;0.45;0.45;;;;;;;4.65;100.00;97348.38;4997260;28;20038;-85
2022/11/23 07:35:13;;;;;;;0.40;0.40;;;;;;;4.73;100.00;97360.56;5013158;28;20037;-85
2022/11/23 07:37:39;;;;;;;0.40;0.40;;;;;;;5.06;100.00;97397.47;5021640;28;20029;-86
2022/11/23 07:40:05;;;;;;;0.40;0.40;;;;;;;5.16;100.00;97392.44;5031081;28;20483;-84
2022/11/23 07:42:31;;;;;;;0.40;0.40;;;;;;;5.21;100.00;97394.41;5023029;28;20045;-84
2022/11/23 07:44:56;;;;;;;0.40;0.40;;;;;;;5.13;100.00;97386.72;5013110;28;20517;-83
2022/11/23 07:47:22;;;;;;;0.40;0.40;;;;;;;5.15;100.00;97401.44;5029278;28;20038;-83
2022/11/23 07:49:47;;;;;;;0.40;0.40;;;;;;;5.14;100.00;97415.81;5025020;28;20040;-84
2022/11/23 07:52:13;;;;;;;0.40;0.40;;;;;;;5.19;100.00;97452.44;5005838;28;20387;-81
2022/11/23 07:54:39;;;;;;;2.65;0.60;;;;;;;5.11;100.00;97458.03;5022203;28;20033;-80
2022/11/23 07:57:04;;;;;;;0.47;0.47;;;;;;;5.11;100.00;97461.53;5039610;28;20033;-80
2022/11/23 07:59:30;;;;;;;0.50;0.50;;;;;;;5.15;100.00;97462.72;4988760;28;20034;-81
2022/11/23 08:01:55;;;;;;;0.50;0.50;;;;;;;5.10;100.00;97456.41;5057585;28;20025;-81
2022/11/23 08:04:21;;;;;;;0.40;0.40;;;;;;;5.05;100.00;97457.06;5013093;28;20025;-81
2022/11/23 08:06:49;;;;;;;0.40;0.40;;;;;;;4.99;100.00;97442.00;5025881;28;20038;-81
2022/11/23 08:09:15;;;;;;;0.40;0.40;;;;;;;4.94;100.00;97436.53;5013528;28;20026;-83
2022/11/23 08:11:41;;;;;;;0.40;0.40;;;;;;;4.99;100.00;97437.47;5038606;28;20032;-81
2022/11/23 08:14:06;;;;;;;0.45;0.45;;;;;;;4.95;100.00;97440.78;5013210;28;20039;-83
2022/11/23 08:16:34;;;;;;;0.40;0.40;;;;;;;4.99;100.00;97445.47;5038016;28;20239;-83
2022/11/23 08:19:00;;;;;;;0.40;0.40;;;;;;;4.96;100.00;97435.25;4997292;28;20124;-83
2022/11/23 08:21:26;;;;;;;0.40;0.40;;;;;;;4.90;100.00;97427.38;5022383;28;20571;-82
2022/11/23 08:23:51;;;;;;;0.40;0.40;;;;;;;4.99;100.00;97442.81;5029009;28;20021;-82
2022/11/23 08:26:19;;;;;;;0.40;0.40;;;;;;;4.96;100.00;97445.91;5005439;28;20040;-83
2022/11/23 08:28:45;;;;;;;0.40;0.40;;;;;;;4.87;100.00;97433.09;5005129;28;20128;-82
2022/11/23 08:31:13;;;;;;;0.50;0.50;;;;;;;4.72;100.00;97418.31;5055486;28;20554;-85
2022/11/23 08:33:41;;;;;;;0.40;0.40;;;;;;;4.70;100.00;97419.56;5005043;28;20033;-84
2022/11/23 08:36:07;;;;;;;0.40;0.40;;;;;;;4.72;100.00;97433.47;5039965;28;20033;-83
2022/11/23 08:38:33;;;;;;;0.50;0.50;;;;;;;4.68;100.00;97430.41;5029469;28;20021;-85
2022/11/23 08:41:04;;;;;;;0.40;0.40;;;;;;;4.37;100.00;97408.22;4999435;28;20402;-86
2022/11/23 08:43:30;;;;;;;0.40;0.40;;;;;;;4.34;100.00;97419.28;5006323;28;20064;-84
2022/11/23 08:45:57;;;;;;;0.50;0.50;;;;;;;4.34;100.00;97424.59;5009142;28;20037;-84
2022/11/23 08:48:23;;;;;;;0.40;0.40;;;;;;;4.27;100.00;97425.69;5014824;28;20033;-83
2022/11/23 08:50:49;;;;;;;0.40;0.40;;;;;;;4.33;100.00;97425.63;4996182;28;20038;-83
2022/11/23 08:53:15;;;;;;;0.40;0.40;;;;;;;4.53;100.00;97430.78;5026464;28;20522;-84
2022/11/23 08:55:41;;;;;;;0.50;0.50;;;;;;;4.73;100.00;97457.19;5025036;28;20049;-85
2022/11/23 08:58:07;;;;;;;0.50;0.50;;;;;;;4.84;100.00;97423.72;5032940;28;20033;-81
2022/11/23 09:00:33;;;;;;;0.50;0.50;;;;;;;5.09;100.00;97436.97;5015945;28;20699;-82
2022/11/23 09:02:59;;;;;;;0.50;0.50;;;;;;;5.23;100.00;97443.75;5033187;28;20041;-82
2022/11/23 09:05:25;;;;;;;0.40;0.40;;;;;;;5.27;100.00;97446.81;5030729;28;20038;-82
2022/11/23 09:07:51;;;;;;;0.45;0.45;;;;;;;5.41;100.00;97471.44;5000345;28;20033;-81
2022/11/23 09:10:17;;;;;;;0.43;0.43;;;;;;;5.41;100.00;97458.94;5026657;28;20030;-81
2022/11/23 09:12:43;;;;;;;0.40;0.40;;;;;;;5.35;100.00;97427.06;4996291;28;20229;-82
2022/11/23 09:15:09;;;;;;;0.40;0.40;;;;;;;5.44;100.00;97417.69;5049568;28;20033;-82
2022/11/23 09:17:34;;;;;;;0.40;0.40;;;;;;;5.46;100.00;97450.28;5008384;28;20055;-85
2022/11/23 09:20:00;;;;;;;0.40;0.40;;;;;;;5.42;100.00;97433.09;5015924;28;20033;-86
2022/11/23 09:22:26;;;;;;;0.40;0.40;;;;;;;5.38;100.00;97421.28;5009727;28;20037;-85
2022/11/23 09:24:52;;;;;;;0.50;0.50;;;;;;;5.30;100.00;97401.06;5011549;28;20026;-83
2022/11/23 09:27:18;;;;;;;0.40;0.40;;;;;;;5.31;100.00;97413.34;5026386;28;20033;-84
2022/11/23 09:29:44;;;;;;;0.50;0.50;;;;;;;5.34;100.00;97436.06;5041231;28;20021;-84
2022/11/23 09:32:10;;;;;;;0.50;0.50;;;;;;;5.29;100.00;97431.41;5000047;28;20074;-86
2022/11/23 09:34:36;;;;;;;0.40;0.40;;;;;;;5.37;100.00;97440.94;5014604;28;20360;-86
2022/11/23 09:37:01;;;;;;;0.40;0.40;;;;;;;5.25;100.00;97415.06;5032457;28;20036;-85
2022/11/23 09:39:27;;;;;;;0.50;0.50;;;;;;;5.45;100.00;97437.97;4989853;28;20041;-86
2022/11/23 09:42:17;;;;;;;0.43;0.43;;;;;;;5.58;100.00;97443.13;5002539;28;20056;-85
2022/11/23 09:45:10;;;;;;;0.50;0.50;;;;;;;5.59;100.00;97430.63;5042532;28;20040;-85
2022/11/23 09:48:13;;;;;;;0.40;0.40;;;;;;;5.79;100.00;97457.81;5029032;28;20045;-86
2022/11/23 09:50:46;;;;;;;0.50;0.50;;;;;;;6.27;100.00;97440.13;5028728;28;20038;-85
2022/11/23 09:53:15;;;;;;;0.50;0.50;;;;;;;6.34;100.00;97435.50;5028484;28;20026;-85
2022/11/23 09:55:45;;;;;;;0.50;0.50;;;;;;;6.36;100.00;97433.44;5028527;28;20045;-85
2022/11/23 09:58:18;;;;;;;0.60;0.60;;;;;;;7.02;100.00;97428.78;5003826;28;20029;-84
2022/11/23 10:00:47;;;;;;;0.52;0.52;;;;;;;7.38;100.00;97440.19;5028423;28;20446;-86
2022/11/23 10:03:15;;;;;;;0.60;0.60;;;;;;;8.56;100.00;97425.22;5023435;28;20029;-85
2022/11/23 10:05:44;;;;;;;0.50;0.50;;;;;;;9.55;100.00;97402.16;5014393;28;20033;-86
2022/11/23 10:08:34;;;;;;;0.70;0.70;;;;;;;10.46;100.00;97414.03;4996185;28;20033;-85
2022/11/23 10:11:26;;;;;;;0.57;0.57;;;;;;;11.04;100.00;97423.00;5007192;28;20547;-87
2022/11/23 10:14:19;;;;;;;0.63;0.63;;;;;;;11.59;100.00;97426.19;5058257;28;20086;-86
2022/11/23 10:16:52;;;;;;;0.60;0.60;;;;;;;12.13;97.92;97439.31;5015394;28;20270;-87
2022/11/23 10:19:36;;;;;;;0.60;0.60;;;;;;;12.77;95.49;97456.84;4998504;28;20064;-86
2022/11/23 10:22:10;;;;;;;0.60;0.60;;;;;;;12.85;95.67;97458.19;4993457;28;20498;-86
2022/11/23 10:24:43;;;;;;;0.57;0.57;;;;;;;12.77;93.98;97419.91;5048023;28;20039;-87
2022/11/23 10:27:14;;;;;;;0.55;0.55;;;;;;;12.77;97.28;97430.69;5006949;28;20051;-89
2022/11/23 10:29:41;;;;;;;0.50;0.50;;;;;;;11.65;100.00;97444.81;5048152;28;20467;-84
2022/11/23 10:32:18;;;;;;;0.50;0.50;;;;;;;11.33;100.00;97441.44;5006797;28;20033;-84
2022/11/23 10:35:07;;;;;;;0.40;0.40;;;;;;;9.43;100.00;97439.00;5020240;28;20033;-85
2022/11/23 10:37:33;;;;;;;0.35;0.35;;;;;;;8.29;100.00;97434.94;5011463;28;20476;-86
2022/11/23 10:39:59;;;;;;;0.40;0.40;;;;;;;7.61;100.00;97445.47;5009744;28;20033;-83
2022/11/23 10:42:32;;;;;;;0.50;0.50;;;;;;;7.58;100.00;97451.31;4997434;28;20551;-83
2022/11/23 10:44:59;;;;;;;0.40;0.40;;;;;;;7.29;100.00;97461.16;5010015;28;20076;-86
2022/11/23 10:47:37;;;;;;;0.40;0.40;;;;;;;6.83;100.00;97484.19;5020328;28;20134;-86
2022/11/23 10:50:19;;;;;;;0.40;0.40;;;;;;;6.46;100.00;97475.56;5030728;28;20454;-83
2022/11/23 10:53:05;;;;;;;2.72;0.75;;;;;;;6.24;100.00;97493.94;4993839;28;20177;-82
2022/11/23 10:55:53;;;;;;;0.40;0.40;;;;;;;6.00;100.00;97491.19;5020013;28;20495;-83
2022/11/23 10:58:33;;;;;;;0.40;0.40;;;;;;;6.06;100.00;97492.97;5011832;28;20036;-82
2022/11/23 11:01:02;;;;;;;0.47;0.47;;;;;;;6.24;100.00;97493.94;5008972;28;20030;-83
2022/11/23 11:03:32;;;;;;;0.50;0.50;;;;;;;6.51;100.00;97476.50;4997965;28;20037;-83
2022/11/23 11:05:57;;;;;;;0.45;0.45;;;;;;;6.73;100.00;97449.25;4997794;28;20025;-83
2022/11/23 11:08:29;;;;;;;0.50;0.50;;;;;;;7.66;100.00;97458.16;5026605;28;20030;-84
2022/11/23 11:11:09;;;;;;;0.40;0.40;;;;;;;7.78;100.00;97472.28;4989393;28;20034;-84
2022/11/23 11:13:43;;;;;;;0.40;0.40;;;;;;;7.42;100.00;97455.53;5046917;28;20037;-84
2022/11/23 11:16:20;;;;;;;0.50;0.50;;;;;;;7.89;100.00;97442.00;5005690;28;20048;-84
2022/11/23 11:18:46;;;;;;;0.50;0.50;;;;;;;8.51;100.00;97437.72;5039653;28;20498;-85
2022/11/23 11:21:42;;;;;;;0.40;0.40;;;;;;;7.77;100.00;97445.78;5013913;28;20029;-84
2022/11/23 11:24:15;;;;;;;0.40;0.40;;;;;;;7.27;100.00;97445.34;5012652;28;20037;-83
2022/11/23 11:26:52;;;;;;;0.40;0.40;;;;;;;7.04;100.00;97450.75;4986818;28;20037;-84
2022/11/23 11:29:33;;;;;;;0.40;0.40;;;;;;;6.84;100.00;97464.44;5016353;28;20033;-84
2022/11/23 11:32:03;;;;;;;0.40;0.40;;;;;;;6.71;100.00;97473.50;5022907;28;20036;-83
2022/11/23 11:34:42;;;;;;;0.75;0.50;;;;;;;6.49;100.00;97481.25;5012358;28;20072;-84
2022/11/23 11:37:33;;;;;;;0.47;0.47;;;;;;;6.28;100.00;97482.59;5024416;28;20119;-82